sensor_id;sensor_type;location;lat;lon;timestamp;pressure;altitude;pressure_sealevel;temperature;humidity
72465;BME280;60471;52.150;4.508;2024-03-22T00:01:51;101805.84;;;11.72;100.00
72465;BME280;60471;52.150;4.508;2024-03-22T00:04:18;101799.84;;;11.67;100.00
72465;BME280;60471;52.150;4.508;2024-03-22T00:06:46;101792.56;;;11.49;100.00
72465;BME280;60471;52.150;4.508;2024-03-22T00:09:16;101787.28;;;11.49;100.00
72465;BME280;60471;52.150;4.508;2024-03-22T00:11:43;101788.84;;;11.54;100.00
72465;BME280;60471;52.150;4.508;2024-03-22T00:14:11;101796.03;;;11.51;100.00
72465;BME280;60471;52.150;4.508;2024-03-22T00:16:37;101788.22;;;11.71;100.00
72465;BME280;60471;52.150;4.508;2024-03-22T00:19:04;101779.59;;;11.66;100.00
72465;BME280;60471;52.150;4.508;2024-03-22T00:21:30;101757.06;;;11.56;100.00
72465;BME280;60471;52.150;4.508;2024-03-22T00:23:57;101756.81;;;11.64;100.00
72465;BME280;60471;52.150;4.508;2024-03-22T00:26:24;101752.47;;;11.61;100.00
72465;BME280;60471;52.150;4.508;2024-03-22T00:28:50;101754.16;;;11.40;100.00
72465;BME280;60471;52.150;4.508;2024-03-22T00:31:16;101758.38;;;11.21;100.00
72465;BME280;60471;52.150;4.508;2024-03-22T00:33:43;101744.38;;;11.42;100.00
72465;BME280;60471;52.150;4.508;2024-03-22T00:36:09;101739.56;;;11.28;100.00
72465;BME280;60471;52.150;4.508;2024-03-22T00:38:35;101726.34;;;11.30;100.00
72465;BME280;60471;52.150;4.508;2024-03-22T00:41:02;101735.78;;;11.12;100.00
72465;BME280;60471;52.150;4.508;2024-03-22T00:43:28;101724.94;;;11.20;100.00
72465;BME280;60471;52.150;4.508;2024-03-22T00:45:54;101721.97;;;11.29;100.00
72465;BME280;60471;52.150;4.508;2024-03-22T00:48:20;101711.44;;;11.27;100.00
72465;BME280;60471;52.150;4.508;2024-03-22T00:50:47;101723.09;;;11.22;100.00
72465;BME280;60471;52.150;4.508;2024-03-22T00:53:13;101716.91;;;11.23;100.00
72465;BME280;60471;52.150;4.508;2024-03-22T00:55:39;101710.97;;;11.16;100.00
72465;BME280;60471;52.150;4.508;2024-03-22T00:58:06;101725.88;;;11.19;100.00
72465;BME280;60471;52.150;4.508;2024-03-22T01:00:32;101733.94;;;11.14;100.00
72465;BME280;60471;52.150;4.508;2024-03-22T01:02:58;101708.78;;;11.27;100.00
72465;BME280;60471;52.150;4.508;2024-03-22T01:05:24;101728.13;;;11.29;100.00
72465;BME280;60471;52.150;4.508;2024-03-22T01:07:51;101742.13;;;11.31;100.00
72465;BME280;60471;52.150;4.508;2024-03-22T01:10:18;101751.94;;;11.28;100.00
72465;BME280;60471;52.150;4.508;2024-03-22T01:12:44;101727.78;;;11.14;100.00
72465;BME280;60471;52.150;4.508;2024-03-22T01:15:10;101754.47;;;11.06;100.00
72465;BME280;60471;52.150;4.508;2024-03-22T01:17:37;101727.41;;;11.24;100.00
72465;BME280;60471;52.150;4.508;2024-03-22T01:20:03;101712.81;;;11.38;100.00
72465;BME280;60471;52.150;4.508;2024-03-22T01:22:30;101711.09;;;11.13;100.00
72465;BME280;60471;52.150;4.508;2024-03-22T01:24:56;101704.19;;;11.09;100.00
72465;BME280;60471;52.150;4.508;2024-03-22T01:27:23;101708.84;;;11.02;100.00
72465;BME280;60471;52.150;4.508;2024-03-22T01:29:49;101696.44;;;11.04;100.00
72465;BME280;60471;52.150;4.508;2024-03-22T01:32:15;101700.91;;;11.02;100.00
72465;BME280;60471;52.150;4.508;2024-03-22T01:34:41;101716.75;;;11.02;100.00
72465;BME280;60471;52.150;4.508;2024-03-22T01:37:07;101704.59;;;10.98;100.00
72465;BME280;60471;52.150;4.508;2024-03-22T01:39:34;101706.06;;;11.06;100.00
72465;BME280;60471;52.150;4.508;2024-03-22T01:42:00;101705.22;;;11.05;100.00
72465;BME280;60471;52.150;4.508;2024-03-22T01:44:31;101697.13;;;11.10;100.00
72465;BME280;60471;52.150;4.508;2024-03-22T01:46:58;101699.84;;;11.08;100.00
72465;BME280;60471;52.150;4.508;2024-03-22T01:49:28;101698.81;;;11.12;100.00
72465;BME280;60471;52.150;4.508;2024-03-22T01:51:55;101714.66;;;11.12;100.00
72465;BME280;60471;52.150;4.508;2024-03-22T01:54:21;101714.31;;;11.21;100.00
72465;BME280;60471;52.150;4.508;2024-03-22T01:56:47;101703.81;;;10.95;100.00
72465;BME280;60471;52.150;4.508;2024-03-22T01:59:14;101704.34;;;11.04;100.00
72465;BME280;60471;52.150;4.508;2024-03-22T02:01:41;101698.31;;;11.01;100.00
72465;BME280;60471;52.150;4.508;2024-03-22T02:04:08;101710.72;;;10.99;100.00
72465;BME280;60471;52.150;4.508;2024-03-22T02:06:35;101741.06;;;11.12;100.00
72465;BME280;60471;52.150;4.508;2024-03-22T02:09:01;101680.69;;;11.01;100.00
72465;BME280;60471;52.150;4.508;2024-03-22T02:11:30;101698.66;;;10.92;100.00
72465;BME280;60471;52.150;4.508;2024-03-22T02:13:57;101676.66;;;10.91;100.00
72465;BME280;60471;52.150;4.508;2024-03-22T02:16:24;101691.00;;;10.84;100.00
72465;BME280;60471;52.150;4.508;2024-03-22T02:18:50;101674.66;;;10.74;100.00
72465;BME280;60471;52.150;4.508;2024-03-22T02:21:16;101654.03;;;10.84;100.00
72465;BME280;60471;52.150;4.508;2024-03-22T02:23:42;101656.84;;;10.80;100.00
72465;BME280;60471;52.150;4.508;2024-03-22T02:26:08;101633.28;;;10.75;100.00
72465;BME280;60471;52.150;4.508;2024-03-22T02:28:35;101646.41;;;10.77;100.00
72465;BME280;60471;52.150;4.508;2024-03-22T02:31:02;101640.34;;;10.73;100.00
72465;BME280;60471;52.150;4.508;2024-03-22T02:33:29;101641.88;;;10.80;100.00
72465;BME280;60471;52.150;4.508;2024-03-22T02:35:56;101631.25;;;10.82;100.00
72465;BME280;60471;52.150;4.508;2024-03-22T02:38:23;101635.72;;;10.80;100.00
72465;BME280;60471;52.150;4.508;2024-03-22T02:40:51;101633.22;;;10.77;100.00
72465;BME280;60471;52.150;4.508;2024-03-22T02:43:18;101633.28;;;10.73;100.00
72465;BME280;60471;52.150;4.508;2024-03-22T02:45:47;101631.44;;;10.77;100.00
72465;BME280;60471;52.150;4.508;2024-03-22T02:48:14;101610.06;;;10.83;100.00
72465;BME280;60471;52.150;4.508;2024-03-22T02:50:41;101604.97;;;10.79;100.00
72465;BME280;60471;52.150;4.508;2024-03-22T02:53:07;101606.69;;;10.80;100.00
72465;BME280;60471;52.150;4.508;2024-03-22T02:55:38;101596.72;;;10.88;100.00
72465;BME280;60471;52.150;4.508;2024-03-22T02:58:05;101598.66;;;10.83;100.00
72465;BME280;60471;52.150;4.508;2024-03-22T03:00:39;101586.09;;;10.89;100.00
72465;BME280;60471;52.150;4.508;2024-03-22T03:03:06;101592.91;;;10.95;100.00
72465;BME280;60471;52.150;4.508;2024-03-22T03:05:33;101586.44;;;10.80;100.00
72465;BME280;60471;52.150;4.508;2024-03-22T03:08:00;101574.22;;;10.78;100.00
72465;BME280;60471;52.150;4.508;2024-03-22T03:10:27;101575.47;;;10.91;100.00
72465;BME280;60471;52.150;4.508;2024-03-22T03:12:56;101578.31;;;10.85;100.00
72465;BME280;60471;52.150;4.508;2024-03-22T03:15:22;101595.22;;;10.81;100.00
72465;BME280;60471;52.150;4.508;2024-03-22T03:17:48;101568.94;;;10.78;100.00
72465;BME280;60471;52.150;4.508;2024-03-22T03:20:15;101574.47;;;10.70;100.00
72465;BME280;60471;52.150;4.508;2024-03-22T03:22:41;101575.22;;;10.73;100.00
72465;BME280;60471;52.150;4.508;2024-03-22T03:25:07;101569.53;;;10.84;100.00
72465;BME280;60471;52.150;4.508;2024-03-22T03:27:34;101547.34;;;10.66;100.00
72465;BME280;60471;52.150;4.508;2024-03-22T03:30:01;101553.09;;;10.78;100.00
72465;BME280;60471;52.150;4.508;2024-03-22T03:32:28;101550.72;;;10.70;100.00
72465;BME280;60471;52.150;4.508;2024-03-22T03:34:54;101549.75;;;10.72;100.00
72465;BME280;60471;52.150;4.508;2024-03-22T03:37:20;101528.41;;;10.79;100.00
72465;BME280;60471;52.150;4.508;2024-03-22T03:39:46;101524.28;;;10.71;100.00
72465;BME280;60471;52.150;4.508;2024-03-22T03:42:13;101531.59;;;10.63;100.00
72465;BME280;60471;52.150;4.508;2024-03-22T03:44:39;101533.38;;;10.63;100.00
72465;BME280;60471;52.150;4.508;2024-03-22T03:47:08;101537.59;;;10.68;100.00
72465;BME280;60471;52.150;4.508;2024-03-22T03:49:34;101534.75;;;10.74;100.00
72465;BME280;60471;52.150;4.508;2024-03-22T03:52:01;101522.22;;;10.80;100.00
72465;BME280;60471;52.150;4.508;2024-03-22T03:54:28;101525.19;;;10.94;100.00
72465;BME280;60471;52.150;4.508;2024-03-22T03:56:54;101529.03;;;10.85;100.00
72465;BME280;60471;52.150;4.508;2024-03-22T03:59:20;101533.69;;;10.79;100.00
72465;BME280;60471;52.150;4.508;2024-03-22T04:01:46;101541.63;;;10.79;100.00
72465;BME280;60471;52.150;4.508;2024-03-22T04:04:13;101536.53;;;10.72;100.00
72465;BME280;60471;52.150;4.508;2024-03-22T04:06:39;101531.38;;;10.69;100.00
72465;BME280;60471;52.150;4.508;2024-03-22T04:09:05;101541.38;;;10.61;100.00
72465;BME280;60471;52.150;4.508;2024-03-22T04:11:32;101528.34;;;10.80;100.00
72465;BME280;60471;52.150;4.508;2024-03-22T04:13:58;101525.78;;;10.79;100.00
72465;BME280;60471;52.150;4.508;2024-03-22T04:16:24;101537.72;;;10.65;100.00
72465;BME280;60471;52.150;4.508;2024-03-22T04:18:50;101542.94;;;10.67;100.00
72465;BME280;60471;52.150;4.508;2024-03-22T04:21:17;101528.88;;;10.90;100.00
72465;BME280;60471;52.150;4.508;2024-03-22T04:23:43;101541.22;;;10.89;100.00
72465;BME280;60471;52.150;4.508;2024-03-22T04:26:09;101559.81;;;10.86;100.00
72465;BME280;60471;52.150;4.508;2024-03-22T04:28:36;101546.16;;;10.75;100.00
72465;BME280;60471;52.150;4.508;2024-03-22T04:31:09;101548.44;;;10.84;100.00
72465;BME280;60471;52.150;4.508;2024-03-22T04:33:36;101541.63;;;10.79;100.00
72465;BME280;60471;52.150;4.508;2024-03-22T04:36:04;101545.06;;;10.81;100.00
72465;BME280;60471;52.150;4.508;2024-03-22T04:38:31;101533.91;;;10.72;100.00
72465;BME280;60471;52.150;4.508;2024-03-22T04:40:58;101526.13;;;10.69;100.00
72465;BME280;60471;52.150;4.508;2024-03-22T04:43:24;101524.97;;;10.77;100.00
72465;BME280;60471;52.150;4.508;2024-03-22T04:45:51;101538.63;;;10.88;100.00
72465;BME280;60471;52.150;4.508;2024-03-22T04:48:22;101557.13;;;10.88;100.00
72465;BME280;60471;52.150;4.508;2024-03-22T04:50:52;101551.03;;;10.86;100.00
72465;BME280;60471;52.150;4.508;2024-03-22T04:53:22;101557.16;;;10.86;100.00
72465;BME280;60471;52.150;4.508;2024-03-22T04:55:49;101555.41;;;10.85;100.00
72465;BME280;60471;52.150;4.508;2024-03-22T04:58:17;101561.06;;;10.76;100.00
72465;BME280;60471;52.150;4.508;2024-03-22T05:00:44;101529.94;;;11.08;100.00
72465;BME280;60471;52.150;4.508;2024-03-22T05:03:11;101542.66;;;10.98;100.00
72465;BME280;60471;52.150;4.508;2024-03-22T05:05:38;101528.00;;;10.89;100.00
72465;BME280;60471;52.150;4.508;2024-03-22T05:08:06;101535.22;;;10.84;100.00
72465;BME280;60471;52.150;4.508;2024-03-22T05:10:33;101514.75;;;10.91;100.00
72465;BME280;60471;52.150;4.508;2024-03-22T05:13:00;101520.94;;;10.90;100.00
72465;BME280;60471;52.150;4.508;2024-03-22T05:15:26;101515.53;;;10.93;100.00
72465;BME280;60471;52.150;4.508;2024-03-22T05:17:56;101523.34;;;10.96;100.00
72465;BME280;60471;52.150;4.508;2024-03-22T05:20:23;101540.50;;;10.84;100.00
72465;BME280;60471;52.150;4.508;2024-03-22T05:22:50;101505.97;;;10.90;100.00
72465;BME280;60471;52.150;4.508;2024-03-22T05:25:16;101504.56;;;11.03;100.00
72465;BME280;60471;52.150;4.508;2024-03-22T05:27:43;101517.16;;;10.97;100.00
72465;BME280;60471;52.150;4.508;2024-03-22T05:30:12;101495.22;;;10.95;100.00
72465;BME280;60471;52.150;4.508;2024-03-22T05:32:41;101550.78;;;10.92;100.00
72465;BME280;60471;52.150;4.508;2024-03-22T05:35:08;101506.75;;;10.92;100.00
72465;BME280;60471;52.150;4.508;2024-03-22T05:37:34;101508.25;;;10.99;100.00
72465;BME280;60471;52.150;4.508;2024-03-22T05:40:02;101501.75;;;11.08;100.00
72465;BME280;60471;52.150;4.508;2024-03-22T05:42:30;101493.13;;;11.03;100.00
72465;BME280;60471;52.150;4.508;2024-03-22T05:44:56;101484.34;;;11.02;100.00
72465;BME280;60471;52.150;4.508;2024-03-22T05:47:23;101495.78;;;11.03;100.00
72465;BME280;60471;52.150;4.508;2024-03-22T05:49:49;101496.31;;;10.89;100.00
72465;BME280;60471;52.150;4.508;2024-03-22T05:52:15;101466.16;;;10.95;100.00
72465;BME280;60471;52.150;4.508;2024-03-22T05:54:41;101502.41;;;10.91;100.00
72465;BME280;60471;52.150;4.508;2024-03-22T05:57:08;101495.53;;;10.87;100.00
72465;BME280;60471;52.150;4.508;2024-03-22T05:59:34;101483.53;;;10.79;100.00
72465;BME280;60471;52.150;4.508;2024-03-22T06:02:00;101484.19;;;10.84;100.00
72465;BME280;60471;52.150;4.508;2024-03-22T06:04:27;101485.47;;;10.97;100.00
72465;BME280;60471;52.150;4.508;2024-03-22T06:06:53;101475.56;;;11.02;100.00
72465;BME280;60471;52.150;4.508;2024-03-22T06:09:19;101471.03;;;11.06;100.00
72465;BME280;60471;52.150;4.508;2024-03-22T06:12:05;101479.28;;;10.98;100.00
72465;BME280;60471;52.150;4.508;2024-03-22T06:14:32;101484.63;;;10.96;100.00
72465;BME280;60471;52.150;4.508;2024-03-22T06:16:59;101475.72;;;11.21;100.00
72465;BME280;60471;52.150;4.508;2024-03-22T06:19:25;101474.50;;;11.08;100.00
72465;BME280;60471;52.150;4.508;2024-03-22T06:21:51;101497.69;;;10.99;100.00
72465;BME280;60471;52.150;4.508;2024-03-22T06:24:17;101485.47;;;11.19;100.00
72465;BME280;60471;52.150;4.508;2024-03-22T06:26:44;101485.91;;;11.08;100.00
72465;BME280;60471;52.150;4.508;2024-03-22T06:29:10;101477.22;;;11.04;100.00
72465;BME280;60471;52.150;4.508;2024-03-22T06:31:36;101470.22;;;11.03;100.00
72465;BME280;60471;52.150;4.508;2024-03-22T06:34:03;101473.13;;;10.97;100.00
72465;BME280;60471;52.150;4.508;2024-03-22T06:36:31;101475.78;;;10.97;100.00
72465;BME280;60471;52.150;4.508;2024-03-22T06:38:58;101472.44;;;10.92;100.00
72465;BME280;60471;52.150;4.508;2024-03-22T06:41:25;101472.50;;;10.91;100.00
72465;BME280;60471;52.150;4.508;2024-03-22T06:43:54;101477.78;;;10.91;100.00
72465;BME280;60471;52.150;4.508;2024-03-22T06:46:20;101499.88;;;10.88;100.00
72465;BME280;60471;52.150;4.508;2024-03-22T06:48:47;101466.72;;;10.81;100.00
72465;BME280;60471;52.150;4.508;2024-03-22T06:51:13;101489.59;;;10.81;100.00
72465;BME280;60471;52.150;4.508;2024-03-22T06:53:39;101476.41;;;10.81;100.00
72465;BME280;60471;52.150;4.508;2024-03-22T06:56:06;101484.34;;;10.57;100.00
72465;BME280;60471;52.150;4.508;2024-03-22T06:58:38;101458.13;;;10.53;100.00
72465;BME280;60471;52.150;4.508;2024-03-22T07:01:05;101483.38;;;10.60;100.00
72465;BME280;60471;52.150;4.508;2024-03-22T07:03:31;101512.56;;;10.55;100.00
72465;BME280;60471;52.150;4.508;2024-03-22T07:05:57;101467.13;;;10.47;100.00
72465;BME280;60471;52.150;4.508;2024-03-22T07:08:24;101506.66;;;10.49;100.00
72465;BME280;60471;52.150;4.508;2024-03-22T07:10:51;101476.59;;;10.53;100.00
72465;BME280;60471;52.150;4.508;2024-03-22T07:13:19;101528.88;;;10.41;100.00
72465;BME280;60471;52.150;4.508;2024-03-22T07:15:46;101463.38;;;10.54;100.00
72465;BME280;60471;52.150;4.508;2024-03-22T07:18:16;101463.31;;;10.56;100.00
72465;BME280;60471;52.150;4.508;2024-03-22T07:20:42;101486.34;;;10.51;100.00
72465;BME280;60471;52.150;4.508;2024-03-22T07:23:11;101464.72;;;10.41;100.00
72465;BME280;60471;52.150;4.508;2024-03-22T07:25:37;101475.97;;;10.46;100.00
72465;BME280;60471;52.150;4.508;2024-03-22T07:28:04;101486.75;;;10.40;100.00
72465;BME280;60471;52.150;4.508;2024-03-22T07:30:30;101477.88;;;10.42;100.00
72465;BME280;60471;52.150;4.508;2024-03-22T07:32:56;101462.13;;;10.39;100.00
72465;BME280;60471;52.150;4.508;2024-03-22T07:35:23;101484.22;;;10.37;100.00
72465;BME280;60471;52.150;4.508;2024-03-22T07:37:50;101491.94;;;10.43;100.00
72465;BME280;60471;52.150;4.508;2024-03-22T07:40:17;101477.63;;;10.49;100.00
72465;BME280;60471;52.150;4.508;2024-03-22T07:42:43;101471.94;;;10.59;100.00
72465;BME280;60471;52.150;4.508;2024-03-22T07:45:09;101498.22;;;10.62;100.00
72465;BME280;60471;52.150;4.508;2024-03-22T07:47:36;101480.22;;;10.50;100.00
72465;BME280;60471;52.150;4.508;2024-03-22T07:50:03;101485.94;;;10.61;100.00
72465;BME280;60471;52.150;4.508;2024-03-22T07:52:30;101456.31;;;10.55;100.00
72465;BME280;60471;52.150;4.508;2024-03-22T07:54:56;101476.59;;;10.76;100.00
72465;BME280;60471;52.150;4.508;2024-03-22T07:57:22;101462.69;;;10.71;100.00
72465;BME280;60471;52.150;4.508;2024-03-22T07:59:49;101466.31;;;10.68;100.00
72465;BME280;60471;52.150;4.508;2024-03-22T08:02:19;101466.03;;;10.76;100.00
72465;BME280;60471;52.150;4.508;2024-03-22T08:04:45;101490.75;;;10.97;100.00
72465;BME280;60471;52.150;4.508;2024-03-22T08:07:11;101471.81;;;10.62;100.00
72465;BME280;60471;52.150;4.508;2024-03-22T08:09:37;101461.34;;;10.61;100.00
72465;BME280;60471;52.150;4.508;2024-03-22T08:12:04;101465.91;;;10.79;100.00
72465;BME280;60471;52.150;4.508;2024-03-22T08:14:30;101494.50;;;10.68;100.00
72465;BME280;60471;52.150;4.508;2024-03-22T08:16:56;101469.25;;;10.61;100.00
72465;BME280;60471;52.150;4.508;2024-03-22T08:19:23;101472.53;;;10.67;100.00
72465;BME280;60471;52.150;4.508;2024-03-22T08:21:49;101459.47;;;10.64;100.00
72465;BME280;60471;52.150;4.508;2024-03-22T08:24:15;101477.28;;;10.58;100.00
72465;BME280;60471;52.150;4.508;2024-03-22T08:26:41;101464.59;;;10.67;100.00
72465;BME280;60471;52.150;4.508;2024-03-22T08:29:11;101462.38;;;10.57;100.00
72465;BME280;60471;52.150;4.508;2024-03-22T08:31:37;101485.53;;;10.49;100.00
72465;BME280;60471;52.150;4.508;2024-03-22T08:34:03;101489.22;;;10.44;100.00
72465;BME280;60471;52.150;4.508;2024-03-22T08:36:31;101481.97;;;10.50;100.00
72465;BME280;60471;52.150;4.508;2024-03-22T08:38:57;101461.97;;;10.44;100.00
72465;BME280;60471;52.150;4.508;2024-03-22T08:41:23;101454.13;;;10.42;100.00
72465;BME280;60471;52.150;4.508;2024-03-22T08:43:50;101468.63;;;10.54;100.00
72465;BME280;60471;52.150;4.508;2024-03-22T08:46:16;101452.56;;;10.60;100.00
72465;BME280;60471;52.150;4.508;2024-03-22T08:48:42;101479.28;;;10.51;100.00
72465;BME280;60471;52.150;4.508;2024-03-22T08:51:08;101463.31;;;10.56;100.00
72465;BME280;60471;52.150;4.508;2024-03-22T08:53:35;101471.75;;;10.42;100.00
72465;BME280;60471;52.150;4.508;2024-03-22T08:56:01;101462.94;;;10.41;100.00
72465;BME280;60471;52.150;4.508;2024-03-22T08:58:27;101448.19;;;10.59;100.00
72465;BME280;60471;52.150;4.508;2024-03-22T09:00:54;101456.31;;;10.55;100.00
72465;BME280;60471;52.150;4.508;2024-03-22T09:03:20;101464.44;;;10.49;100.00
72465;BME280;60471;52.150;4.508;2024-03-22T09:05:47;101455.19;;;10.37;100.00
72465;BME280;60471;52.150;4.508;2024-03-22T09:08:13;101458.88;;;10.33;100.00
72465;BME280;60471;52.150;4.508;2024-03-22T09:10:39;101450.44;;;10.47;100.00
72465;BME280;60471;52.150;4.508;2024-03-22T09:13:05;101441.34;;;10.55;100.00
72465;BME280;60471;52.150;4.508;2024-03-22T09:15:32;101462.25;;;10.60;100.00
72465;BME280;60471;52.150;4.508;2024-03-22T09:17:59;101455.28;;;10.81;100.00
72465;BME280;60471;52.150;4.508;2024-03-22T09:20:25;101457.88;;;10.82;100.00
72465;BME280;60471;52.150;4.508;2024-03-22T09:22:51;101461.28;;;10.62;100.00
72465;BME280;60471;52.150;4.508;2024-03-22T09:25:17;101450.31;;;10.50;100.00
72465;BME280;60471;52.150;4.508;2024-03-22T09:27:44;101448.47;;;10.52;100.00
72465;BME280;60471;52.150;4.508;2024-03-22T09:30:11;101445.34;;;10.42;100.00
72465;BME280;60471;52.150;4.508;2024-03-22T09:32:37;101458.94;;;10.55;100.00
72465;BME280;60471;52.150;4.508;2024-03-22T09:35:04;101441.16;;;10.82;100.00
72465;BME280;60471;52.150;4.508;2024-03-22T09:37:30;101456.69;;;10.67;100.00
72465;BME280;60471;52.150;4.508;2024-03-22T09:39:57;101480.44;;;10.67;100.00
72465;BME280;60471;52.150;4.508;2024-03-22T09:42:23;101435.56;;;10.67;100.00
72465;BME280;60471;52.150;4.508;2024-03-22T09:44:51;101446.50;;;10.35;100.00
72465;BME280;60471;52.150;4.508;2024-03-22T09:47:18;101435.13;;;10.56;100.00
72465;BME280;60471;52.150;4.508;2024-03-22T09:49:47;101438.41;;;10.39;100.00
72465;BME280;60471;52.150;4.508;2024-03-22T09:52:15;101426.19;;;10.37;100.00
72465;BME280;60471;52.150;4.508;2024-03-22T09:54:45;101434.59;;;10.70;100.00
72465;BME280;60471;52.150;4.508;2024-03-22T09:57:14;101450.84;;;10.59;100.00
72465;BME280;60471;52.150;4.508;2024-03-22T09:59:44;101427.25;;;10.78;100.00
72465;BME280;60471;52.150;4.508;2024-03-22T10:02:12;101424.03;;;10.70;100.00
72465;BME280;60471;52.150;4.508;2024-03-22T10:04:43;101430.44;;;10.64;100.00
72465;BME280;60471;52.150;4.508;2024-03-22T10:07:09;101449.69;;;10.66;100.00
72465;BME280;60471;52.150;4.508;2024-03-22T10:09:37;101432.00;;;10.68;100.00
72465;BME280;60471;52.150;4.508;2024-03-22T10:12:06;101431.50;;;10.59;100.00
72465;BME280;60471;52.150;4.508;2024-03-22T10:14:32;101444.13;;;10.51;100.00
72465;BME280;60471;52.150;4.508;2024-03-22T10:16:59;101431.19;;;10.44;100.00
72465;BME280;60471;52.150;4.508;2024-03-22T10:19:26;101433.44;;;10.30;100.00
72465;BME280;60471;52.150;4.508;2024-03-22T10:22:02;101434.03;;;10.38;100.00
72465;BME280;60471;52.150;4.508;2024-03-22T10:24:29;101441.69;;;10.46;100.00
72465;BME280;60471;52.150;4.508;2024-03-22T10:26:56;101424.28;;;10.64;100.00
72465;BME280;60471;52.150;4.508;2024-03-22T10:29:22;101438.06;;;10.49;100.00
72465;BME280;60471;52.150;4.508;2024-03-22T10:31:51;101432.16;;;10.42;100.00
72465;BME280;60471;52.150;4.508;2024-03-22T10:34:21;101436.00;;;10.33;100.00
72465;BME280;60471;52.150;4.508;2024-03-22T10:36:49;101428.63;;;10.41;100.00
72465;BME280;60471;52.150;4.508;2024-03-22T10:39:17;101445.56;;;10.59;100.00
72465;BME280;60471;52.150;4.508;2024-03-22T10:41:45;101435.88;;;10.60;100.00
72465;BME280;60471;52.150;4.508;2024-03-22T10:44:12;101432.66;;;10.52;100.00
72465;BME280;60471;52.150;4.508;2024-03-22T10:46:44;101425.47;;;10.79;100.00
72465;BME280;60471;52.150;4.508;2024-03-22T10:49:16;101431.38;;;10.62;100.00
72465;BME280;60471;52.150;4.508;2024-03-22T10:51:49;101431.28;;;10.65;100.00
72465;BME280;60471;52.150;4.508;2024-03-22T10:54:20;101436.03;;;10.79;100.00
72465;BME280;60471;52.150;4.508;2024-03-22T10:56:50;101435.22;;;10.77;100.00
72465;BME280;60471;52.150;4.508;2024-03-22T10:59:23;101451.16;;;10.97;100.00
72465;BME280;60471;52.150;4.508;2024-03-22T11:01:50;101447.75;;;10.93;100.00
72465;BME280;60471;52.150;4.508;2024-03-22T11:04:20;101444.38;;;10.90;100.00
72465;BME280;60471;52.150;4.508;2024-03-22T11:06:49;101430.44;;;11.08;100.00
72465;BME280;60471;52.150;4.508;2024-03-22T11:09:26;101422.09;;;11.19;100.00
72465;BME280;60471;52.150;4.508;2024-03-22T11:11:54;101422.59;;;11.27;100.00
72465;BME280;60471;52.150;4.508;2024-03-22T11:14:22;101407.06;;;11.41;100.00
72465;BME280;60471;52.150;4.508;2024-03-22T11:16:52;101429.56;;;11.50;100.00
72465;BME280;60471;52.150;4.508;2024-03-22T11:19:21;101409.38;;;11.69;100.00
72465;BME280;60471;52.150;4.508;2024-03-22T11:21:47;101412.84;;;11.49;100.00
72465;BME280;60471;52.150;4.508;2024-03-22T11:24:14;101406.00;;;11.66;100.00
72465;BME280;60471;52.150;4.508;2024-03-22T11:26:42;101398.06;;;11.45;100.00
72465;BME280;60471;52.150;4.508;2024-03-22T11:29:10;101406.19;;;11.41;100.00
72465;BME280;60471;52.150;4.508;2024-03-22T11:31:36;101405.13;;;11.45;100.00
72465;BME280;60471;52.150;4.508;2024-03-22T11:34:02;101427.69;;;11.53;100.00
72465;BME280;60471;52.150;4.508;2024-03-22T11:36:29;101414.06;;;11.42;100.00
72465;BME280;60471;52.150;4.508;2024-03-22T11:38:55;101418.88;;;11.32;100.00
72465;BME280;60471;52.150;4.508;2024-03-22T11:41:26;101409.56;;;11.44;100.00
72465;BME280;60471;52.150;4.508;2024-03-22T11:43:55;101415.00;;;11.61;100.00
72465;BME280;60471;52.150;4.508;2024-03-22T11:46:24;101398.78;;;11.49;100.00
72465;BME280;60471;52.150;4.508;2024-03-22T11:48:54;101386.13;;;11.98;100.00
72465;BME280;60471;52.150;4.508;2024-03-22T11:51:21;101400.16;;;12.18;100.00
72465;BME280;60471;52.150;4.508;2024-03-22T11:53:49;101409.38;;;12.10;100.00
72465;BME280;60471;52.150;4.508;2024-03-22T11:56:20;101397.72;;;12.33;100.00
72465;BME280;60471;52.150;4.508;2024-03-22T11:58:47;101411.78;;;12.14;100.00
72465;BME280;60471;52.150;4.508;2024-03-22T12:01:16;101410.66;;;12.20;100.00
72465;BME280;60471;52.150;4.508;2024-03-22T12:03:44;101397.63;;;12.15;100.00
72465;BME280;60471;52.150;4.508;2024-03-22T12:06:10;101402.16;;;12.32;100.00
72465;BME280;60471;52.150;4.508;2024-03-22T12:08:38;101390.38;;;12.39;100.00
72465;BME280;60471;52.150;4.508;2024-03-22T12:11:10;101383.13;;;12.24;100.00
72465;BME280;60471;52.150;4.508;2024-03-22T12:13:37;101389.44;;;12.22;100.00
72465;BME280;60471;52.150;4.508;2024-03-22T12:16:04;101381.41;;;12.23;100.00
72465;BME280;60471;52.150;4.508;2024-03-22T12:18:31;101376.19;;;12.22;100.00
72465;BME280;60471;52.150;4.508;2024-03-22T12:20:58;101373.47;;;12.42;100.00
72465;BME280;60471;52.150;4.508;2024-03-22T12:23:24;101367.25;;;12.62;100.00
72465;BME280;60471;52.150;4.508;2024-03-22T12:25:51;101389.09;;;12.29;100.00
72465;BME280;60471;52.150;4.508;2024-03-22T12:28:19;101367.03;;;12.10;100.00
72465;BME280;60471;52.150;4.508;2024-03-22T12:30:47;101355.00;;;11.84;100.00
72465;BME280;60471;52.150;4.508;2024-03-22T12:33:15;101351.38;;;12.05;100.00
72465;BME280;60471;52.150;4.508;2024-03-22T12:35:41;101362.53;;;12.31;100.00
72465;BME280;60471;52.150;4.508;2024-03-22T12:38:09;101356.41;;;12.30;100.00
72465;BME280;60471;52.150;4.508;2024-03-22T12:40:38;101362.25;;;12.37;100.00